Time,TemperatureF,DewpointF,PressureIn,WindDirection,WindDirectionDegrees,WindSpeedMPH,WindSpeedGustMPH,Humidity,HourlyPrecipIn,Conditions,Clouds,dailyrainin,SoftwareType,DateUTC
2013-02-18 00:01:00,40.0,4.0,-100.00,WNW,296,4.0,18.0,22,0.00,,,0.00,,2013-02-18 07:01:00,
2013-02-18 00:11:00,40.0,4.0,-100.00,WNW,296,4.0,18.0,22,0.00,,,0.00,,2013-02-18 07:11:00,
2013-02-18 00:22:00,40.0,4.0,-100.00,WNW,296,4.0,18.0,22,0.00,,,0.00,,2013-02-18 07:22:00,
2013-02-18 00:32:00,40.0,4.0,-100.00,WNW,296,4.0,18.0,22,0.00,,,0.00,,2013-02-18 07:32:00,
2013-02-18 00:40:00,39.0,5.0,-100.00,WNW,284,5.0,14.0,24,0.00,,,0.00,,2013-02-18 07:40:00,
2013-02-18 01:01:00,39.0,5.0,-100.00,WNW,284,5.0,14.0,24,0.00,,,0.00,,2013-02-18 08:01:00,
2013-02-18 01:11:00,39.0,5.0,-100.00,WNW,284,5.0,14.0,24,0.00,,,0.00,,2013-02-18 08:11:00,
2013-02-18 01:21:00,39.0,5.0,-100.00,WNW,284,5.0,14.0,24,0.00,,,0.00,,2013-02-18 08:21:00,
2013-02-18 01:32:00,39.0,5.0,-100.00,WNW,284,5.0,14.0,24,0.00,,,0.00,,2013-02-18 08:32:00,
2013-02-18 01:40:00,37.0,4.0,-100.00,WNW,283,5.0,14.0,25,0.00,,,0.00,,2013-02-18 08:40:00,
2013-02-18 02:03:00,37.0,4.0,-100.00,WNW,283,5.0,14.0,25,0.00,,,0.00,,2013-02-18 09:03:00,
2013-02-18 02:11:00,37.0,4.0,-100.00,WNW,283,5.0,14.0,25,0.00,,,0.00,,2013-02-18 09:11:00,
2013-02-18 02:22:00,37.0,4.0,-100.00,WNW,283,5.0,14.0,25,0.00,,,0.00,,2013-02-18 09:22:00,
2013-02-18 02:32:00,37.0,4.0,-100.00,WNW,283,5.0,14.0,25,0.00,,,0.00,,2013-02-18 09:32:00,
2013-02-18 02:40:00,35.0,6.0,-100.00,WNW,285,4.0,14.0,29,0.00,,,0.00,,2013-02-18 09:40:00,
2013-02-18 03:01:00,35.0,6.0,-100.00,WNW,285,4.0,14.0,29,0.00,,,0.00,,2013-02-18 10:01:00,
2013-02-18 03:11:00,35.0,6.0,-100.00,WNW,285,4.0,14.0,29,0.00,,,0.00,,2013-02-18 10:11:00,
2013-02-18 03:21:00,35.0,6.0,-100.00,WNW,285,4.0,14.0,29,0.00,,,0.00,,2013-02-18 10:21:00,
2013-02-18 03:31:00,35.0,6.0,-100.00,WNW,285,4.0,14.0,29,0.00,,,0.00,,2013-02-18 10:31:00,
2013-02-18 03:40:00,34.0,11.0,-100.00,NW,312,3.0,18.0,37,0.00,,,0.00,,2013-02-18 10:40:00,
2013-02-18 04:01:00,34.0,11.0,-100.00,NW,312,3.0,18.0,37,0.00,,,0.00,,2013-02-18 11:01:00,
2013-02-18 04:11:00,34.0,11.0,-100.00,NW,312,3.0,18.0,37,0.00,,,0.00,,2013-02-18 11:11:00,
2013-02-18 04:22:00,34.0,11.0,-100.00,NW,312,3.0,18.0,37,0.00,,,0.00,,2013-02-18 11:22:00,
2013-02-18 04:32:00,34.0,11.0,-100.00,NW,312,3.0,18.0,37,0.00,,,0.00,,2013-02-18 11:32:00,
2013-02-18 04:40:00,33.0,11.0,-100.00,NW,311,7.0,15.0,39,0.00,,,0.00,,2013-02-18 11:40:00,
2013-02-18 05:02:00,33.0,11.0,-100.00,NW,311,7.0,15.0,39,0.00,,,0.00,,2013-02-18 12:02:00,
2013-02-18 05:11:00,33.0,11.0,-100.00,NW,311,7.0,15.0,39,0.00,,,0.00,,2013-02-18 12:11:00,
2013-02-18 05:22:00,33.0,11.0,-100.00,NW,311,7.0,15.0,39,0.00,,,0.00,,2013-02-18 12:22:00,
2013-02-18 05:32:00,33.0,11.0,-100.00,NW,311,7.0,15.0,39,0.00,,,0.00,,2013-02-18 12:32:00,
2013-02-18 05:40:00,31.0,11.0,-100.00,WNW,300,5.0,17.0,42,0.00,,,0.00,,2013-02-18 12:40:00,
2013-02-18 06:03:00,31.0,11.0,-100.00,WNW,300,5.0,17.0,42,0.00,,,0.00,,2013-02-18 13:03:00,
2013-02-18 06:12:00,31.0,11.0,-100.00,WNW,300,5.0,17.0,42,0.00,,,0.00,,2013-02-18 13:12:00,
2013-02-18 06:22:00,31.0,11.0,-100.00,WNW,300,5.0,17.0,42,0.00,,,0.00,,2013-02-18 13:22:00,
2013-02-18 06:32:00,31.0,11.0,-100.00,WNW,300,5.0,17.0,42,0.00,,,0.00,,2013-02-18 13:32:00,
2013-02-18 06:40:00,29.0,3.0,-100.00,NW,305,6.0,15.0,32,0.00,,,0.00,,2013-02-18 13:40:00,
2013-02-18 07:02:00,29.0,3.0,-100.00,NW,305,6.0,15.0,32,0.00,,,0.00,,2013-02-18 14:02:00,
2013-02-18 07:11:00,29.0,3.0,-100.00,NW,305,6.0,15.0,32,0.00,,,0.00,,2013-02-18 14:11:00,
2013-02-18 07:22:00,29.0,3.0,-100.00,NW,305,6.0,15.0,32,0.00,,,0.00,,2013-02-18 14:22:00,
2013-02-18 07:33:00,29.0,3.0,-100.00,NW,305,6.0,15.0,32,0.00,,,0.00,,2013-02-18 14:33:00,
2013-02-18 08:02:00,32.0,-12.0,-100.00,NW,308,7.0,13.0,14,0.00,,,0.00,,2013-02-18 15:02:00,
2013-02-18 09:03:00,35.0,-14.0,-100.00,NNW,342,5.0,20.0,11,0.00,,,0.00,,2013-02-18 16:03:00,
2013-02-18 09:40:00,35.0,-5.0,-100.00,NNW,347,10.0,21.0,17,0.00,,,0.00,,2013-02-18 16:40:00,
2013-02-18 10:04:00,35.0,-5.0,-100.00,NNW,347,10.0,21.0,17,0.00,,,0.00,,2013-02-18 17:04:00,
2013-02-18 10:12:00,35.0,-5.0,-100.00,NNW,347,10.0,21.0,17,0.00,,,0.00,,2013-02-18 17:12:00,
2013-02-18 10:22:00,35.0,-5.0,-100.00,NNW,347,10.0,21.0,17,0.00,,,0.00,,2013-02-18 17:22:00,
2013-02-18 10:32:00,35.0,-5.0,-100.00,NNW,347,10.0,21.0,17,0.00,,,0.00,,2013-02-18 17:32:00,
2013-02-18 10:40:00,38.0,-4.0,-100.00,NNW,339,9.0,19.0,16,0.00,,,0.00,,2013-02-18 17:40:00,
2013-02-18 11:02:00,38.0,-4.0,-100.00,NNW,339,9.0,19.0,16,0.00,,,0.00,,2013-02-18 18:02:00,
2013-02-18 11:12:00,38.0,-4.0,-100.00,NNW,339,9.0,19.0,16,0.00,,,0.00,,2013-02-18 18:12:00,
2013-02-18 11:23:00,38.0,-4.0,-100.00,NNW,339,9.0,19.0,16,0.00,,,0.00,,2013-02-18 18:23:00,
2013-02-18 11:32:00,38.0,-4.0,-100.00,NNW,339,9.0,19.0,16,0.00,,,0.00,,2013-02-18 18:32:00,
2013-02-18 11:40:00,41.0,-8.0,-100.00,NNW,343,10.0,20.0,12,0.00,,,0.00,,2013-02-18 18:40:00,
2013-02-18 12:03:00,41.0,-8.0,-100.00,NNW,343,10.0,20.0,12,0.00,,,0.00,,2013-02-18 19:03:00,
2013-02-18 12:12:00,41.0,-8.0,-100.00,NNW,343,10.0,20.0,12,0.00,,,0.00,,2013-02-18 19:12:00,
2013-02-18 12:22:00,41.0,-8.0,-100.00,NNW,343,10.0,20.0,12,0.00,,,0.00,,2013-02-18 19:22:00,
2013-02-18 12:33:00,41.0,-8.0,-100.00,NNW,343,10.0,20.0,12,0.00,,,0.00,,2013-02-18 19:33:00,
2013-02-18 12:40:00,43.0,-6.0,-100.00,North,358,7.0,16.0,12,0.00,,,0.00,,2013-02-18 19:40:00,
2013-02-18 13:02:00,43.0,-6.0,-100.00,North,358,7.0,16.0,12,0.00,,,0.00,,2013-02-18 20:02:00,
2013-02-18 13:12:00,43.0,-6.0,-100.00,North,358,7.0,16.0,12,0.00,,,0.00,,2013-02-18 20:12:00,
2013-02-18 13:23:00,43.0,-6.0,-100.00,North,358,7.0,16.0,12,0.00,,,0.00,,2013-02-18 20:23:00,
2013-02-18 13:33:00,43.0,-6.0,-100.00,North,358,7.0,16.0,12,0.00,,,0.00,,2013-02-18 20:33:00,
2013-02-18 13:40:00,47.0,-3.0,-100.00,ESE,109,5.0,15.0,12,0.00,,,0.00,,2013-02-18 20:40:00,
2013-02-18 14:03:00,47.0,-3.0,-100.00,ESE,109,5.0,15.0,12,0.00,,,0.00,,2013-02-18 21:03:00,
2013-02-18 14:12:00,47.0,-3.0,-100.00,ESE,109,5.0,15.0,12,0.00,,,0.00,,2013-02-18 21:12:00,
2013-02-18 14:22:00,47.0,-3.0,-100.00,ESE,109,5.0,15.0,12,0.00,,,0.00,,2013-02-18 21:22:00,
2013-02-18 14:32:00,47.0,-3.0,-100.00,ESE,109,5.0,15.0,12,0.00,,,0.00,,2013-02-18 21:32:00,
2013-02-18 14:40:00,47.0,-3.0,-100.00,SE,124,5.0,14.0,12,0.00,,,0.00,,2013-02-18 21:40:00,
2013-02-18 15:03:00,47.0,-3.0,-100.00,SE,124,5.0,14.0,12,0.00,,,0.00,,2013-02-18 22:03:00,
2013-02-18 15:22:00,47.0,-3.0,-100.00,SE,124,5.0,14.0,12,0.00,,,0.00,,2013-02-18 22:22:00,
2013-02-18 15:33:00,47.0,-3.0,-100.00,SE,124,5.0,14.0,12,0.00,,,0.00,,2013-02-18 22:33:00,
2013-02-18 15:40:00,47.0,-5.0,-100.00,SE,144,4.0,16.0,11,0.00,,,0.00,,2013-02-18 22:40:00,
2013-02-18 16:02:00,47.0,-5.0,-100.00,SE,144,4.0,16.0,11,0.00,,,0.00,,2013-02-18 23:02:00,
2013-02-18 16:12:00,47.0,-5.0,-100.00,SE,144,4.0,16.0,11,0.00,,,0.00,,2013-02-18 23:12:00,
2013-02-18 16:23:00,47.0,-5.0,-100.00,SE,144,4.0,16.0,11,0.00,,,0.00,,2013-02-18 23:23:00,
2013-02-18 16:33:00,47.0,-5.0,-100.00,SE,144,4.0,16.0,11,0.00,,,0.00,,2013-02-18 23:33:00,
2013-02-18 16:40:00,45.0,-5.0,-100.00,SSE,154,4.0,8.0,12,0.00,,,0.00,,2013-02-18 23:40:00,
2013-02-18 17:03:00,45.0,-5.0,-100.00,SSE,154,4.0,8.0,12,0.00,,,0.00,,2013-02-19 00:03:00,
2013-02-18 17:12:00,45.0,-5.0,-100.00,SSE,154,4.0,8.0,12,0.00,,,0.00,,2013-02-19 00:12:00,
2013-02-18 17:22:00,45.0,-5.0,-100.00,SSE,154,4.0,8.0,12,0.00,,,0.00,,2013-02-19 00:22:00,
2013-02-18 17:34:00,45.0,-5.0,-100.00,SSE,154,4.0,8.0,12,0.00,,,0.00,,2013-02-19 00:34:00,
2013-02-18 17:40:00,39.0,-5.0,-100.00,SSE,148,2.0,7.0,15,0.00,,,0.00,,2013-02-19 00:40:00,
2013-02-18 18:03:00,39.0,-5.0,-100.00,SSE,148,2.0,7.0,15,0.00,,,0.00,,2013-02-19 01:03:00,
2013-02-18 18:14:00,39.0,-5.0,-100.00,SSE,148,2.0,7.0,15,0.00,,,0.00,,2013-02-19 01:14:00,
2013-02-18 18:24:00,39.0,-5.0,-100.00,SSE,148,2.0,7.0,15,0.00,,,0.00,,2013-02-19 01:24:00,
2013-02-18 18:34:00,39.0,-5.0,-100.00,SSE,148,2.0,7.0,15,0.00,,,0.00,,2013-02-19 01:34:00,
2013-02-18 18:40:00,29.0,-4.0,-100.00,West,280,2.0,5.0,23,0.00,,,0.00,,2013-02-19 01:40:00,
2013-02-18 19:03:00,29.0,-4.0,-100.00,West,280,2.0,5.0,23,0.00,,,0.00,,2013-02-19 02:03:00,
2013-02-18 19:34:00,29.0,-4.0,-100.00,West,280,2.0,5.0,23,0.00,,,0.00,,2013-02-19 02:34:00,
2013-02-18 19:40:00,32.0,-10.0,-100.00,NNW,330,4.0,8.0,15,0.00,,,0.00,,2013-02-19 02:40:00,
2013-02-18 20:06:00,32.0,-10.0,-100.00,NNW,330,4.0,8.0,15,0.00,,,0.00,,2013-02-19 03:06:00,
2013-02-18 20:14:00,32.0,-10.0,-100.00,NNW,330,4.0,8.0,15,0.00,,,0.00,,2013-02-19 03:14:00,
2013-02-18 20:34:00,32.0,-10.0,-100.00,NNW,330,4.0,8.0,15,0.00,,,0.00,,2013-02-19 03:34:00,
2013-02-18 20:40:00,29.0,-10.0,-100.00,WNW,301,2.0,6.0,17,0.00,,,0.00,,2013-02-19 03:40:00,
2013-02-18 21:02:00,29.0,-10.0,-100.00,WNW,301,2.0,6.0,17,0.00,,,0.00,,2013-02-19 04:02:00,
2013-02-18 21:14:00,29.0,-10.0,-100.00,WNW,301,2.0,6.0,17,0.00,,,0.00,,2013-02-19 04:14:00,
2013-02-18 21:23:00,29.0,-10.0,-100.00,WNW,301,2.0,6.0,17,0.00,,,0.00,,2013-02-19 04:23:00,
2013-02-18 21:33:00,29.0,-10.0,-100.00,WNW,301,2.0,6.0,17,0.00,,,0.00,,2013-02-19 04:33:00,
2013-02-18 21:40:00,27.0,-9.0,-100.00,West,280,2.0,6.0,20,0.00,,,0.00,,2013-02-19 04:40:00,
2013-02-18 22:02:00,27.0,-9.0,-100.00,West,280,2.0,6.0,20,0.00,,,0.00,,2013-02-19 05:02:00,
2013-02-18 22:12:00,27.0,-9.0,-100.00,West,280,2.0,6.0,20,0.00,,,0.00,,2013-02-19 05:12:00,
2013-02-18 22:22:00,27.0,-9.0,-100.00,West,280,2.0,6.0,20,0.00,,,0.00,,2013-02-19 05:22:00,
2013-02-18 22:32:00,27.0,-9.0,-100.00,West,280,2.0,6.0,20,0.00,,,0.00,,2013-02-19 05:32:00,
2013-02-18 22:40:00,24.0,-7.0,-100.00,West,280,2.0,4.0,24,0.00,,,0.00,,2013-02-19 05:40:00,
2013-02-18 23:02:00,24.0,-7.0,-100.00,West,280,2.0,4.0,24,0.00,,,0.00,,2013-02-19 06:02:00,
2013-02-18 23:12:00,24.0,-7.0,-100.00,West,280,2.0,4.0,24,0.00,,,0.00,,2013-02-19 06:12:00,
2013-02-18 23:22:00,24.0,-7.0,-100.00,West,280,2.0,4.0,24,0.00,,,0.00,,2013-02-19 06:22:00,
2013-02-18 23:32:00,24.0,-7.0,-100.00,West,280,2.0,4.0,24,0.00,,,0.00,,2013-02-19 06:32:00,
2013-02-18 23:40:00,21.0,-7.0,-100.00,WNW,297,2.0,4.0,28,0.00,,,0.00,,2013-02-19 06:40:00,